createdAt,value
2022-08-07T00:00:45.442Z,11.95
2022-08-07T00:02:37.060Z,12.00
2022-08-07T00:02:46.415Z,11.99
2022-08-07T00:03:47.421Z,12.00
2022-08-07T00:04:45.479Z,12.03
2022-08-07T00:05:45.382Z,11.97
2022-08-07T00:06:51.237Z,11.99
2022-08-07T00:07:46.343Z,11.97
2022-08-07T00:08:45.346Z,11.95
2022-08-07T00:10:04.730Z,11.95
2022-08-07T00:10:47.963Z,11.91
2022-08-07T00:11:54.295Z,11.88
2022-08-07T00:12:59.909Z,11.85
2022-08-07T00:13:46.277Z,11.80
2022-08-07T00:14:45.258Z,11.77
2022-08-07T00:15:46.870Z,11.77
2022-08-07T00:16:46.229Z,11.76
2022-08-07T00:17:45.218Z,11.79
2022-08-07T00:18:45.218Z,11.77
2022-08-07T00:20:01.104Z,11.74
2022-08-07T00:20:46.180Z,11.70
2022-08-07T00:21:57.155Z,11.66
2022-08-07T00:22:51.803Z,11.62
2022-08-07T00:23:46.142Z,11.62
2022-08-07T00:24:45.152Z,11.62
2022-08-07T00:25:45.995Z,11.58
2022-08-07T00:26:59.435Z,11.56
2022-08-07T00:27:53.534Z,11.56
2022-08-07T00:28:55.712Z,11.52
2022-08-07T00:29:46.052Z,11.51
2022-08-07T00:30:45.052Z,11.54
2022-08-07T00:31:45.031Z,11.52
2022-08-07T00:32:46.032Z,11.52
2022-08-07T00:33:47.499Z,11.56
2022-08-07T00:34:44.991Z,11.51
2022-08-07T00:35:49.484Z,11.48
2022-08-07T00:36:44.981Z,11.46
2022-08-07T00:37:47.909Z,11.48
2022-08-07T00:38:45.022Z,11.45
2022-08-07T00:39:45.425Z,11.38
2022-08-07T00:40:45.921Z,11.43
2022-08-07T00:41:53.058Z,11.45
2022-08-07T00:42:45.895Z,11.43
2022-08-07T00:43:58.903Z,11.40
2022-08-07T00:44:45.862Z,11.38
2022-08-07T00:45:46.589Z,11.36
2022-08-07T00:46:44.856Z,11.34
2022-08-07T00:48:07.822Z,11.28
2022-08-07T00:48:49.788Z,11.28
2022-08-07T00:50:19.187Z,11.25
2022-08-07T00:50:51.561Z,11.25
2022-08-07T00:51:57.479Z,11.27
2022-08-07T00:52:47.431Z,11.23
2022-08-07T00:53:50.182Z,11.28
2022-08-07T00:54:45.735Z,11.27
2022-08-07T00:56:02.170Z,11.27
2022-08-07T00:56:45.761Z,11.30
2022-08-07T00:57:55.882Z,11.31
2022-08-07T00:58:46.841Z,11.27
2022-08-07T00:59:44.696Z,11.25
2022-08-07T01:00:54.175Z,11.23
2022-08-07T01:01:45.751Z,11.25
2022-08-07T01:02:44.661Z,11.23
2022-08-07T01:03:57.162Z,11.23
2022-08-07T01:04:45.618Z,11.20
2022-08-07T01:05:53.651Z,11.18
2022-08-07T01:06:45.572Z,11.18
2022-08-07T01:07:44.568Z,11.20
2022-08-07T01:08:51.515Z,11.18
2022-08-07T01:10:06.578Z,11.13
2022-08-07T01:10:47.624Z,11.13
2022-08-07T01:12:10.137Z,11.09
2022-08-07T01:12:53.738Z,11.11
2022-08-07T01:13:55.504Z,11.08
2022-08-07T01:14:45.482Z,11.09
2022-08-07T01:16:05.413Z,11.11
2022-08-07T01:16:46.943Z,11.11
2022-08-07T01:17:44.442Z,11.11
2022-08-07T01:18:44.447Z,11.12
2022-08-07T01:19:44.951Z,11.11
2022-08-07T01:20:45.395Z,11.09
2022-08-07T01:21:45.393Z,11.09
2022-08-07T01:22:54.139Z,11.04
2022-08-07T01:23:46.655Z,11.03
2022-08-07T01:24:44.346Z,11.03
2022-08-07T01:25:55.654Z,11.05
2022-08-07T01:26:45.316Z,11.05
2022-08-07T01:27:51.127Z,11.03
2022-08-07T01:28:45.934Z,10.98
2022-08-07T01:29:44.264Z,10.98
2022-08-07T01:30:44.265Z,10.97
2022-08-07T01:31:48.600Z,10.95
2022-08-07T01:32:44.237Z,10.91
2022-08-07T01:33:55.159Z,10.82
2022-08-07T01:34:47.323Z,10.85
2022-08-07T01:35:54.096Z,10.85
2022-08-07T01:36:45.180Z,10.80
2022-08-07T01:37:45.177Z,10.85
2022-08-07T01:38:44.173Z,10.82
2022-08-07T01:39:46.472Z,10.82
2022-08-07T01:40:44.144Z,10.83
2022-08-07T01:42:07.646Z,10.80
2022-08-07T01:42:57.654Z,10.78
2022-08-07T01:43:45.092Z,10.78
2022-08-07T01:44:44.080Z,10.76
2022-08-07T01:45:46.702Z,10.75
2022-08-07T01:46:44.048Z,10.73
2022-08-07T01:48:54.207Z,10.67
2022-08-07T01:49:53.594Z,10.70
2022-08-07T01:50:53.219Z,10.70
2022-08-07T01:52:04.144Z,10.65
2022-08-07T01:52:55.050Z,10.72
2022-08-07T01:54:09.385Z,10.72
2022-08-07T01:54:54.154Z,10.70
2022-08-07T01:55:53.135Z,10.70
2022-08-07T01:56:53.146Z,10.64
2022-08-07T01:58:05.455Z,10.64
2022-08-07T01:58:54.106Z,10.62
2022-08-07T01:59:53.086Z,10.62
2022-08-07T02:01:09.458Z,10.57
2022-08-07T02:02:01.980Z,10.60
2022-08-07T02:03:11.640Z,10.64
2022-08-07T02:03:54.072Z,10.64
2022-08-07T02:04:56.454Z,10.64
2022-08-07T02:05:59.941Z,10.61
2022-08-07T02:06:54.233Z,10.60
2022-08-07T02:07:52.998Z,10.54
2022-08-07T02:08:54.437Z,10.55
2022-08-07T02:09:58.708Z,10.55
2022-08-07T02:10:55.356Z,10.52
2022-08-07T02:12:02.624Z,10.52
2022-08-07T02:12:53.930Z,10.52
2022-08-07T02:13:57.177Z,10.45
2022-08-07T02:14:53.889Z,10.45
2022-08-07T02:15:53.101Z,10.45
2022-08-07T02:16:52.981Z,10.49
2022-08-07T02:17:52.861Z,10.49
2022-08-07T02:18:53.220Z,10.49
2022-08-07T02:20:07.093Z,10.55
2022-08-07T02:20:57.326Z,10.54
2022-08-07T02:21:56.255Z,10.52
2022-08-07T02:22:53.025Z,10.46
2022-08-07T02:23:52.809Z,10.54
2022-08-07T02:24:52.764Z,10.49
2022-08-07T02:26:30.478Z,10.49
2022-08-07T02:26:53.735Z,10.54
2022-08-07T02:27:53.193Z,10.54
2022-08-07T02:28:52.705Z,10.54
2022-08-07T02:29:54.308Z,10.55
2022-08-07T02:30:52.694Z,10.57
2022-08-07T02:31:54.647Z,10.58
2022-08-07T02:33:03.882Z,10.58
2022-08-07T02:34:02.943Z,10.57
2022-08-07T02:34:53.631Z,10.57
2022-08-07T02:36:30.526Z,10.54
2022-08-07T02:36:53.599Z,10.58
2022-08-07T02:37:52.605Z,10.54
2022-08-07T02:38:57.021Z,10.55
2022-08-07T02:40:11.830Z,10.60
2022-08-07T02:40:55.663Z,10.55
2022-08-07T02:41:54.893Z,10.60
2022-08-07T02:42:52.811Z,10.62
2022-08-07T02:43:52.510Z,10.62
2022-08-07T02:44:52.503Z,10.64
2022-08-07T02:45:58.311Z,10.64
2022-08-07T02:46:53.468Z,10.65
2022-08-07T02:47:52.457Z,10.67
2022-08-07T02:48:55.233Z,10.67
2022-08-07T02:49:56.290Z,10.70
2022-08-07T02:50:53.648Z,10.72
2022-08-07T02:51:52.439Z,10.70
2022-08-07T02:52:52.390Z,10.70
2022-08-07T02:53:52.370Z,10.70
2022-08-07T02:54:52.351Z,10.73
2022-08-07T02:56:04.137Z,10.72
2022-08-07T02:56:53.330Z,10.70
2022-08-07T02:57:52.331Z,10.73
2022-08-07T02:58:54.137Z,10.70
2022-08-07T02:59:55.023Z,10.73
2022-08-07T03:00:53.344Z,10.70
2022-08-07T03:01:55.462Z,10.70
2022-08-07T03:02:54.821Z,10.68
2022-08-07T03:03:52.241Z,10.68
2022-08-07T03:04:52.233Z,10.65
2022-08-07T03:05:53.620Z,10.65
2022-08-07T03:06:52.202Z,10.61
2022-08-07T03:08:07.634Z,10.62
2022-08-07T03:08:53.163Z,10.55
2022-08-07T03:09:52.524Z,10.54
2022-08-07T03:10:52.151Z,10.48
2022-08-07T03:11:57.902Z,10.49
2022-08-07T03:12:53.115Z,10.45
2022-08-07T03:13:52.114Z,10.43
2022-08-07T03:14:53.108Z,10.41
2022-08-07T03:15:58.372Z,10.42
2022-08-07T03:16:53.066Z,10.34
2022-08-07T03:17:53.598Z,10.39
2022-08-07T03:18:52.046Z,10.36
2022-08-07T03:19:55.163Z,10.36
2022-08-07T03:20:52.457Z,10.39
2022-08-07T03:21:52.006Z,10.34
2022-08-07T03:22:51.989Z,10.38
2022-08-07T03:24:20.858Z,10.41
2022-08-07T03:24:52.947Z,10.41
2022-08-07T03:25:59.761Z,10.39
2022-08-07T03:26:59.231Z,10.38
2022-08-07T03:27:59.127Z,10.39
2022-08-07T03:28:52.900Z,10.41
2022-08-07T03:29:51.888Z,10.39
2022-08-07T03:30:51.869Z,10.36
2022-08-07T03:31:51.877Z,10.35
2022-08-07T03:32:58.629Z,10.39
2022-08-07T03:33:52.842Z,10.38
2022-08-07T03:35:00.701Z,10.35
2022-08-07T03:35:52.831Z,10.31
2022-08-07T03:36:51.801Z,10.31
2022-08-07T03:37:54.020Z,10.27
2022-08-07T03:38:51.760Z,10.21
2022-08-07T03:40:13.292Z,10.18
2022-08-07T03:40:57.257Z,10.18
2022-08-07T03:41:53.297Z,10.08
2022-08-07T03:42:51.713Z,10.02
2022-08-07T03:43:56.843Z,9.96
2022-08-07T03:44:53.433Z,9.87
2022-08-07T03:45:52.684Z,9.87
2022-08-07T03:47:13.203Z,9.80
2022-08-07T03:47:52.674Z,9.69
2022-08-07T03:49:02.903Z,9.62
2022-08-07T03:49:53.504Z,9.57
2022-08-07T03:50:55.923Z,9.55
2022-08-07T03:51:55.206Z,9.51
2022-08-07T03:52:52.593Z,9.51
2022-08-07T03:54:33.762Z,9.40
2022-08-07T03:54:55.089Z,9.30
2022-08-07T03:55:57.993Z,9.22
2022-08-07T03:57:03.407Z,9.14
2022-08-07T03:58:34.082Z,9.08
2022-08-07T03:59:08.644Z,9.06
2022-08-07T04:00:01.637Z,9.04
2022-08-07T04:00:53.292Z,9.04
2022-08-07T04:01:51.545Z,9.04
2022-08-07T04:02:51.487Z,9.11
2022-08-07T04:03:55.262Z,9.09
2022-08-07T04:04:51.418Z,9.18
2022-08-07T04:05:51.408Z,9.22
2022-08-07T04:06:52.401Z,9.29
2022-08-07T04:07:51.523Z,9.33
2022-08-07T04:08:51.358Z,9.40
2022-08-07T04:09:51.399Z,9.47
2022-08-07T04:10:54.090Z,9.54
2022-08-07T04:12:24.266Z,9.57
2022-08-07T04:12:52.310Z,9.62
2022-08-07T04:14:10.327Z,9.65
2022-08-07T04:14:52.279Z,9.69
2022-08-07T04:15:51.270Z,9.72
2022-08-07T04:16:58.241Z,9.75
2022-08-07T04:18:56.509Z,9.83
2022-08-07T04:18:59.423Z,9.87
2022-08-07T04:19:54.638Z,9.90
2022-08-07T04:20:54.793Z,9.94
2022-08-07T04:21:59.879Z,9.91
2022-08-07T04:22:53.843Z,9.90
2022-08-07T04:24:07.233Z,9.94
2022-08-07T04:24:52.182Z,9.93
2022-08-07T04:25:51.136Z,9.94
2022-08-07T04:26:51.127Z,9.99
2022-08-07T04:27:59.389Z,10.01
2022-08-07T04:28:52.093Z,10.05
2022-08-07T04:29:58.643Z,10.09
2022-08-07T04:30:57.237Z,10.14
2022-08-07T04:32:09.647Z,10.18
2022-08-07T04:32:58.308Z,10.26
2022-08-07T04:33:56.446Z,10.23
2022-08-07T04:34:51.014Z,10.24
2022-08-07T04:35:51.429Z,10.27
2022-08-07T04:36:51.007Z,10.28
2022-08-07T04:38:03.667Z,10.27
2022-08-07T04:38:51.966Z,10.30
2022-08-07T04:39:51.018Z,10.31
2022-08-07T04:40:52.089Z,10.36
2022-08-07T04:41:51.055Z,10.39
2022-08-07T04:42:51.607Z,10.45
2022-08-07T04:44:10.578Z,10.48
2022-08-07T04:44:54.805Z,10.55
2022-08-07T04:46:00.955Z,10.60
2022-08-07T04:47:04.371Z,10.62
2022-08-07T04:47:56.885Z,10.67
2022-08-07T04:48:51.828Z,10.70
2022-08-07T04:50:03.684Z,10.75
2022-08-07T04:50:52.029Z,10.80
2022-08-07T04:51:50.809Z,10.83
2022-08-07T04:52:51.775Z,10.85
2022-08-07T04:54:05.547Z,10.87
2022-08-07T04:54:51.750Z,10.91
2022-08-07T04:58:10.236Z,10.93
2022-08-07T04:58:13.257Z,11.04
2022-08-07T04:58:15.072Z,10.97
2022-08-07T05:00:11.565Z,11.13
2022-08-07T05:00:51.733Z,11.13
2022-08-07T05:01:51.321Z,11.13
2022-08-07T05:02:50.714Z,11.16
2022-08-07T05:04:07.784Z,11.23
2022-08-07T05:04:51.614Z,11.27
2022-08-07T05:05:57.481Z,11.27
2022-08-07T05:06:51.702Z,11.33
2022-08-07T05:07:51.749Z,11.36
2022-08-07T05:09:00.831Z,11.40
2022-08-07T05:09:51.582Z,11.46
2022-08-07T05:10:50.533Z,11.48
2022-08-07T05:11:56.800Z,11.51
2022-08-07T05:12:53.852Z,11.58
2022-08-07T05:14:52.588Z,11.62
2022-08-07T05:14:59.069Z,11.66
2022-08-07T05:15:51.505Z,11.73
2022-08-07T05:16:52.864Z,11.79
2022-08-07T05:17:54.784Z,11.87
2022-08-07T05:18:50.426Z,11.89
2022-08-07T05:19:50.445Z,11.91
2022-08-07T05:20:50.397Z,11.99
2022-08-07T05:22:00.381Z,11.99
2022-08-07T05:22:51.377Z,12.04
2022-08-07T05:23:50.369Z,12.05
2022-08-07T05:24:50.473Z,12.08
2022-08-07T05:26:13.447Z,12.13
2022-08-07T05:26:51.337Z,12.11
2022-08-07T05:28:02.958Z,12.11
2022-08-07T05:28:51.337Z,12.15
2022-08-07T05:29:52.091Z,12.15
2022-08-07T05:30:50.268Z,12.22
2022-08-07T05:31:52.736Z,12.28
2022-08-07T05:32:50.240Z,12.32
2022-08-07T05:34:01.131Z,12.33
2022-08-07T05:34:51.211Z,12.40
2022-08-07T05:35:50.243Z,12.46
2022-08-07T05:36:52.731Z,12.55
2022-08-07T05:38:08.716Z,12.62
2022-08-07T05:39:00.644Z,12.66
2022-08-07T05:40:14.223Z,12.71
2022-08-07T05:40:51.735Z,12.77
2022-08-07T05:42:01.823Z,12.79
2022-08-07T05:42:56.140Z,12.84
2022-08-07T05:44:11.648Z,12.88
2022-08-07T05:45:04.380Z,12.95
2022-08-07T05:45:51.072Z,12.95
2022-08-07T05:46:51.170Z,12.99
2022-08-07T05:48:01.115Z,13.04
2022-08-07T05:48:58.485Z,13.06
2022-08-07T05:49:51.014Z,13.11
2022-08-07T05:50:50.749Z,13.16
2022-08-07T05:51:50.002Z,13.17
2022-08-07T05:52:50.022Z,13.20
2022-08-07T05:54:12.648Z,13.23
2022-08-07T05:54:55.345Z,13.29
2022-08-07T05:56:02.761Z,13.35
2022-08-07T05:56:51.259Z,13.40
2022-08-07T05:57:50.368Z,13.49
2022-08-07T05:58:52.837Z,13.49
2022-08-07T05:59:57.476Z,13.53
2022-08-07T06:00:51.191Z,13.63
2022-08-07T06:01:49.926Z,13.65
2022-08-07T06:02:49.938Z,13.76
2022-08-07T06:03:53.992Z,13.78
2022-08-07T06:04:50.897Z,13.83
2022-08-07T06:05:49.798Z,13.83
2022-08-07T06:06:56.650Z,13.90
2022-08-07T06:08:13.961Z,13.91
2022-08-07T06:08:51.536Z,13.93
2022-08-07T06:10:05.491Z,13.93
2022-08-07T06:10:51.949Z,13.94
2022-08-07T06:11:49.739Z,13.97
2022-08-07T06:12:49.709Z,13.97
2022-08-07T06:14:11.447Z,14.00
2022-08-07T06:14:50.689Z,14.00
2022-08-07T06:15:49.929Z,14.03
2022-08-07T06:16:50.226Z,14.15
2022-08-07T06:17:53.605Z,14.16
2022-08-07T06:18:51.474Z,14.21
2022-08-07T06:20:03.668Z,14.26
2022-08-07T06:22:14.425Z,14.41
2022-08-07T06:22:15.331Z,14.36
2022-08-07T06:23:24.868Z,14.49
2022-08-07T06:24:52.235Z,14.56
2022-08-07T06:24:56.943Z,14.61
2022-08-07T06:25:54.345Z,14.63
2022-08-07T06:26:50.533Z,14.63
2022-08-07T06:28:01.117Z,14.66
2022-08-07T06:28:50.493Z,14.66
2022-08-07T06:29:49.505Z,14.67
2022-08-07T06:30:52.836Z,14.71
2022-08-07T06:31:50.587Z,14.69
2022-08-07T06:32:49.463Z,14.78
2022-08-07T06:33:49.427Z,14.86
2022-08-07T06:34:49.425Z,14.95
2022-08-07T06:36:06.660Z,14.96
2022-08-07T06:36:51.902Z,15.03
2022-08-07T06:37:49.376Z,15.03
2022-08-07T06:38:59.494Z,15.05
2022-08-07T06:40:16.057Z,15.04
2022-08-07T06:40:50.390Z,15.07
2022-08-07T06:42:01.923Z,15.14
2022-08-07T06:42:50.298Z,15.20
2022-08-07T06:43:59.194Z,15.25
2022-08-07T06:44:51.096Z,15.32
2022-08-07T06:45:49.276Z,15.36
2022-08-07T06:46:53.566Z,15.41
2022-08-07T06:47:58.911Z,15.43
2022-08-07T06:48:50.226Z,15.48
2022-08-07T06:49:51.807Z,15.59
2022-08-07T06:50:50.211Z,15.65
2022-08-07T06:51:49.962Z,15.69
2022-08-07T06:52:52.909Z,15.78
2022-08-07T06:55:27.693Z,15.81
2022-08-07T06:55:32.351Z,15.83
2022-08-07T06:55:53.533Z,15.88
2022-08-07T06:56:50.646Z,15.99
2022-08-07T06:57:51.986Z,16.06
2022-08-07T07:00:12.994Z,16.16
2022-08-07T07:00:14.350Z,16.24
2022-08-07T07:00:52.996Z,16.29
2022-08-07T07:01:50.920Z,16.33
2022-08-07T07:02:57.715Z,16.39
2022-08-07T07:03:57.116Z,16.36
2022-08-07T07:04:54.899Z,16.39
2022-08-07T07:06:02.926Z,16.42
2022-08-07T07:06:57.508Z,16.42
2022-08-07T07:08:00.073Z,16.46
2022-08-07T07:08:49.967Z,16.51
2022-08-07T07:09:48.955Z,16.61
2022-08-07T07:10:54.846Z,16.62
2022-08-07T07:12:09.067Z,16.69
2022-08-07T07:12:50.194Z,16.74
2022-08-07T07:13:58.714Z,16.79
2022-08-07T07:14:49.886Z,16.84
2022-08-07T07:15:51.536Z,16.95
2022-08-07T07:16:50.581Z,17.02
2022-08-07T07:17:50.466Z,17.14
2022-08-07T07:18:48.876Z,17.22
2022-08-07T07:19:56.441Z,17.30
2022-08-07T07:20:50.212Z,17.39
2022-08-07T07:22:04.633Z,17.43
2022-08-07T07:24:05.245Z,17.45
2022-08-07T07:24:06.548Z,17.45
2022-08-07T07:25:02.989Z,17.39
2022-08-07T07:26:33.869Z,17.47
2022-08-07T07:26:52.041Z,17.52
2022-08-07T07:27:58.573Z,17.54
2022-08-07T07:29:56.070Z,17.57
2022-08-07T07:30:08.738Z,17.65
2022-08-07T07:30:49.681Z,17.69
2022-08-07T07:31:48.652Z,17.66
2022-08-07T07:32:48.643Z,17.73
2022-08-07T07:33:49.077Z,17.78
2022-08-07T07:34:49.642Z,17.79
2022-08-07T07:36:03.811Z,17.81
2022-08-07T07:36:54.063Z,17.86
2022-08-07T07:38:02.084Z,18.01
2022-08-07T07:38:49.569Z,18.08
2022-08-07T07:39:54.428Z,18.18
2022-08-07T07:40:49.546Z,18.18
2022-08-07T07:41:50.695Z,18.23
2022-08-07T07:42:51.370Z,18.28
2022-08-07T07:44:14.143Z,18.38
2022-08-07T07:44:49.863Z,18.45
2022-08-07T07:46:42.572Z,18.41
2022-08-07T07:46:57.125Z,18.45
2022-08-07T07:47:52.834Z,18.52
2022-08-07T07:48:48.437Z,18.63
2022-08-07T07:50:34.694Z,18.75
2022-08-07T07:50:49.418Z,18.83
2022-08-07T07:51:57.411Z,18.85
2022-08-07T07:52:49.388Z,18.91
2022-08-07T07:53:51.955Z,19.00
2022-08-07T07:54:50.592Z,19.05
2022-08-07T07:55:57.847Z,19.13
2022-08-07T07:56:49.332Z,19.24
2022-08-07T07:57:53.149Z,19.27
2022-08-07T07:58:49.300Z,19.37
2022-08-07T07:59:52.548Z,19.45
2022-08-07T08:00:53.786Z,19.53
2022-08-07T08:02:02.379Z,19.59
2022-08-07T08:03:05.216Z,19.64
2022-08-07T08:04:10.467Z,19.74
2022-08-07T08:04:50.474Z,19.77
2022-08-07T08:05:55.368Z,19.82
2022-08-07T08:06:52.102Z,19.81
2022-08-07T08:07:51.568Z,19.82
2022-08-07T08:08:49.163Z,19.90
2022-08-07T08:09:52.343Z,19.97
2022-08-07T08:10:49.261Z,19.96
2022-08-07T08:12:02.767Z,20.07
2022-08-07T08:12:59.626Z,20.18
2022-08-07T08:13:53.262Z,20.26
2022-08-07T08:14:49.095Z,20.22
2022-08-07T08:15:58.327Z,20.30
2022-08-07T08:16:50.409Z,20.22
2022-08-07T08:17:57.822Z,20.29
2022-08-07T08:18:50.387Z,20.39
2022-08-07T08:20:17.366Z,20.50
2022-08-07T08:20:49.014Z,20.50
2022-08-07T08:21:55.400Z,20.53
2022-08-07T08:22:54.336Z,20.60
2022-08-07T08:23:48.990Z,20.70
2022-08-07T08:24:51.285Z,20.67
2022-08-07T08:25:49.570Z,20.77
2022-08-07T08:26:50.492Z,20.79
2022-08-07T08:27:56.701Z,20.90
2022-08-07T08:28:48.897Z,20.93
2022-08-07T08:29:55.886Z,21.08
2022-08-07T08:30:51.435Z,21.10
2022-08-07T08:32:17.495Z,21.05
2022-08-07T08:32:49.138Z,21.18
2022-08-07T08:33:49.668Z,21.26
2022-08-07T08:34:48.813Z,21.37
2022-08-07T08:35:50.041Z,21.50
2022-08-07T08:36:47.793Z,21.62
2022-08-07T08:38:00.507Z,21.69
2022-08-07T08:38:48.764Z,21.66
2022-08-07T08:39:54.910Z,21.65
2022-08-07T08:40:48.759Z,21.74
2022-08-07T08:41:58.138Z,21.85
2022-08-07T08:42:51.542Z,22.00
2022-08-07T08:43:50.522Z,22.01
2022-08-07T08:44:48.689Z,21.94
2022-08-07T08:45:59.049Z,21.97
2022-08-07T08:46:49.615Z,22.06
2022-08-07T08:47:52.574Z,22.09
2022-08-07T08:48:50.953Z,22.18
2022-08-07T08:50:02.447Z,22.33
2022-08-07T08:50:51.703Z,22.48
2022-08-07T08:52:12.445Z,22.38
2022-08-07T08:52:53.590Z,22.12
2022-08-07T08:53:49.517Z,22.12
2022-08-07T08:54:48.522Z,22.27
2022-08-07T08:55:54.730Z,22.41
2022-08-07T08:56:49.489Z,22.49
2022-08-07T08:57:47.502Z,22.58
2022-08-07T08:58:47.499Z,22.52
2022-08-07T08:59:48.145Z,22.44
2022-08-07T09:00:48.357Z,22.53
2022-08-07T09:01:49.518Z,22.68
2022-08-07T09:02:49.602Z,22.83
2022-08-07T09:03:52.580Z,22.98
2022-08-07T09:04:48.366Z,23.13
2022-08-07T09:05:47.415Z,23.25
2022-08-07T09:06:47.974Z,23.18
2022-08-07T09:07:57.733Z,23.10
2022-08-07T09:08:48.365Z,23.07
2022-08-07T09:09:47.600Z,23.07
2022-08-07T09:10:48.305Z,23.03
2022-08-07T09:11:55.544Z,23.03
2022-08-07T09:12:53.668Z,22.96
2022-08-07T09:13:49.378Z,22.93
2022-08-07T09:14:50.648Z,22.88
2022-08-07T09:16:23.532Z,22.81
2022-08-07T09:16:49.205Z,22.85
2022-08-07T09:17:59.021Z,23.06
2022-08-07T09:18:53.296Z,23.15
2022-08-07T09:19:52.901Z,23.33
2022-08-07T09:20:58.482Z,23.37
2022-08-07T09:22:22.887Z,23.39
2022-08-07T09:24:30.453Z,23.33
2022-08-07T09:24:31.342Z,23.36
2022-08-07T09:24:55.332Z,23.36
2022-08-07T09:25:54.300Z,23.51
2022-08-07T09:26:50.935Z,23.64
2022-08-07T09:28:00.217Z,23.63
2022-08-07T09:30:04.471Z,23.44
2022-08-07T09:30:07.582Z,23.56
2022-08-07T09:30:50.627Z,23.44
2022-08-07T09:31:49.325Z,23.54
2022-08-07T09:32:48.002Z,23.52
2022-08-07T09:33:56.617Z,23.45
2022-08-07T09:34:53.826Z,23.54
2022-08-07T09:36:04.670Z,23.55
2022-08-07T09:36:49.726Z,23.60
2022-08-07T09:37:53.707Z,23.73
2022-08-07T09:38:49.964Z,23.82
2022-08-07T09:39:53.867Z,23.89
2022-08-07T09:40:47.959Z,23.97
2022-08-07T09:41:59.156Z,24.07
2022-08-07T09:42:50.210Z,24.15
2022-08-07T09:44:06.755Z,24.31
2022-08-07T09:46:28.650Z,24.48
2022-08-07T09:47:50.493Z,24.62
2022-08-07T09:47:51.765Z,24.68
2022-08-07T09:47:58.136Z,24.56
2022-08-07T09:50:02.068Z,24.56
2022-08-07T09:50:18.327Z,24.56
2022-08-07T09:50:47.814Z,24.68
2022-08-07T09:52:15.570Z,24.71
2022-08-07T09:52:51.665Z,24.55
2022-08-07T09:53:55.069Z,24.45
2022-08-07T09:54:47.754Z,24.47
2022-08-07T09:56:03.816Z,24.33
2022-08-07T09:56:47.724Z,24.31
2022-08-07T09:57:47.274Z,24.48
2022-08-07T09:58:48.654Z,24.65
2022-08-07T10:00:01.441Z,24.91
2022-08-07T10:00:47.712Z,25.06
2022-08-07T10:01:51.717Z,25.06
2022-08-07T10:02:55.765Z,25.00
2022-08-07T10:04:04.919Z,25.08
2022-08-07T10:04:52.932Z,25.12
2022-08-07T10:05:59.613Z,25.28
2022-08-07T10:06:49.245Z,25.38
2022-08-07T10:07:52.641Z,25.63
2022-08-07T10:08:49.632Z,25.82
2022-08-07T10:10:01.036Z,25.89
2022-08-07T10:11:59.168Z,26.00
2022-08-07T10:12:02.287Z,26.10
2022-08-07T10:12:53.197Z,26.19
2022-08-07T10:14:00.686Z,26.00
2022-08-07T10:14:55.283Z,25.70
2022-08-07T10:15:47.483Z,25.34
2022-08-07T10:16:46.506Z,24.90
2022-08-07T10:18:00.785Z,24.70
2022-08-07T10:18:47.445Z,24.66
2022-08-07T10:19:46.425Z,24.60
2022-08-07T10:20:46.432Z,24.58
2022-08-07T10:22:12.231Z,24.40
2022-08-07T10:22:51.019Z,24.47
2022-08-07T10:24:06.734Z,24.71
2022-08-07T10:24:47.356Z,24.96
2022-08-07T10:25:46.357Z,25.21
2022-08-07T10:26:53.027Z,25.37
2022-08-07T10:27:51.439Z,25.56
2022-08-07T10:28:49.760Z,25.78
2022-08-07T10:29:51.824Z,25.81
2022-08-07T10:30:47.282Z,25.77
2022-08-07T10:31:46.270Z,25.74
2022-08-07T10:32:52.956Z,25.70
2022-08-07T10:34:06.909Z,25.67
2022-08-07T10:34:47.237Z,25.59
2022-08-07T10:35:56.998Z,25.45
2022-08-07T10:36:47.564Z,25.48
2022-08-07T10:38:00.449Z,25.53
2022-08-07T10:38:49.224Z,25.40
2022-08-07T10:40:03.039Z,25.37
2022-08-07T10:40:47.167Z,25.28
2022-08-07T10:41:54.572Z,25.27
2022-08-07T10:42:48.099Z,25.27
2022-08-07T10:43:46.226Z,25.23
2022-08-07T10:44:46.106Z,25.15
2022-08-07T10:45:58.381Z,25.27
2022-08-07T10:46:47.076Z,25.27
2022-08-07T10:47:53.635Z,25.30
2022-08-07T10:48:47.047Z,25.33
2022-08-07T10:49:50.771Z,25.36
2022-08-07T10:50:50.408Z,25.52
2022-08-07T10:52:13.030Z,25.70
2022-08-07T10:52:51.175Z,25.75
2022-08-07T10:53:45.978Z,25.83
2022-08-07T10:55:00.851Z,25.88
2022-08-07T10:55:46.952Z,26.08
2022-08-07T10:56:45.932Z,26.26
2022-08-07T10:57:45.921Z,26.36
2022-08-07T10:58:47.449Z,26.43
2022-08-07T10:59:47.581Z,26.57
2022-08-07T11:00:50.241Z,26.76
2022-08-07T11:01:52.079Z,26.53
2022-08-07T11:02:49.044Z,26.26
2022-08-07T11:03:52.998Z,26.30
2022-08-07T11:04:46.844Z,26.08
2022-08-07T11:05:50.994Z,25.95
2022-08-07T11:06:46.809Z,25.93
2022-08-07T11:07:59.662Z,26.00
2022-08-07T11:08:46.786Z,26.11
2022-08-07T11:10:09.923Z,26.19
2022-08-07T11:10:52.314Z,25.86
2022-08-07T11:11:51.808Z,25.88
2022-08-07T11:12:48.991Z,25.85
2022-08-07T11:14:45.968Z,25.83
2022-08-07T11:14:57.283Z,25.92
2022-08-07T11:15:54.306Z,26.08
2022-08-07T11:16:50.854Z,26.28
2022-08-07T11:17:48.000Z,26.43
2022-08-07T11:18:50.688Z,26.64
2022-08-07T11:19:46.640Z,26.76
2022-08-07T11:20:45.621Z,26.83
2022-08-07T11:21:45.606Z,26.95
2022-08-07T11:22:46.508Z,26.60
2022-08-07T11:23:45.612Z,26.63
2022-08-07T11:24:45.877Z,26.79
2022-08-07T11:25:49.742Z,26.97
2022-08-07T11:26:50.017Z,27.04
2022-08-07T11:28:02.697Z,27.17
2022-08-07T11:28:53.548Z,27.31
2022-08-07T11:29:48.156Z,27.40
2022-08-07T11:30:45.509Z,27.27
2022-08-07T11:31:45.474Z,27.40
2022-08-07T11:32:46.414Z,27.45
2022-08-07T11:33:59.394Z,27.42
2022-08-07T11:34:46.438Z,27.16
2022-08-07T11:35:59.736Z,26.95
2022-08-07T11:36:46.408Z,26.86
2022-08-07T11:37:57.848Z,26.65
2022-08-07T11:38:50.668Z,26.46
2022-08-07T11:40:01.041Z,26.23
2022-08-07T11:40:49.760Z,25.89
2022-08-07T11:42:01.330Z,25.85
2022-08-07T11:42:47.374Z,25.83
2022-08-07T11:44:10.830Z,25.86
2022-08-07T11:44:52.706Z,25.85
2022-08-07T11:45:49.860Z,25.90
2022-08-07T11:46:46.283Z,25.96
2022-08-07T11:47:56.549Z,25.98
2022-08-07T11:49:17.492Z,26.00
2022-08-07T11:50:11.353Z,25.93
2022-08-07T11:50:57.807Z,26.11
2022-08-07T11:51:46.573Z,26.36
2022-08-07T11:52:45.195Z,26.56
2022-08-07T11:54:00.606Z,26.78
2022-08-07T11:54:46.441Z,26.83
2022-08-07T11:56:09.009Z,26.86
2022-08-07T11:56:48.637Z,26.88
2022-08-07T11:57:59.619Z,26.78
2022-08-07T11:58:49.788Z,26.65
2022-08-07T12:00:11.795Z,26.48
2022-08-07T12:00:48.894Z,26.48
2022-08-07T12:01:59.533Z,26.53
2022-08-07T12:02:52.296Z,26.61
2022-08-07T12:03:46.511Z,26.70
2022-08-07T12:04:45.737Z,26.82
2022-08-07T12:05:49.302Z,26.79
2022-08-07T12:06:51.797Z,26.76
2022-08-07T12:07:53.700Z,26.82
2022-08-07T12:08:45.979Z,26.78
2022-08-07T12:09:46.165Z,26.86
2022-08-07T12:10:44.954Z,27.10
2022-08-07T12:12:09.748Z,27.25
2022-08-07T12:12:46.162Z,27.45
2022-08-07T12:13:45.124Z,27.54
2022-08-07T12:14:44.919Z,27.73
2022-08-07T12:16:05.631Z,27.93
2022-08-07T12:16:46.115Z,28.09
2022-08-07T12:17:59.846Z,28.22
2022-08-07T12:18:45.839Z,28.31
2022-08-07T12:20:03.322Z,28.34
2022-08-07T12:20:46.262Z,28.38
2022-08-07T12:21:56.019Z,28.40
2022-08-07T12:22:56.124Z,28.49
2022-08-07T12:24:06.882Z,28.00
2022-08-07T12:24:45.805Z,27.80
2022-08-07T12:26:05.837Z,27.57
2022-08-07T12:26:49.122Z,27.44
2022-08-07T12:28:09.290Z,27.27
2022-08-07T12:28:49.620Z,27.17
2022-08-07T12:29:45.712Z,27.05
2022-08-07T12:30:46.928Z,27.00
2022-08-07T12:32:02.608Z,26.98
2022-08-07T12:32:46.605Z,26.98
2022-08-07T12:34:00.713Z,26.94
2022-08-07T12:34:49.604Z,26.85
2022-08-07T12:35:48.136Z,26.86
2022-08-07T12:36:49.328Z,27.03
2022-08-07T12:38:09.680Z,27.20
2022-08-07T12:38:47.444Z,27.44
2022-08-07T12:39:50.407Z,27.75
2022-08-07T12:40:47.696Z,27.97
2022-08-07T12:41:51.346Z,27.95
2022-08-07T12:42:55.109Z,28.13
2022-08-07T12:44:04.354Z,28.32
2022-08-07T12:44:45.552Z,28.54
2022-08-07T12:45:45.446Z,28.64
2022-08-07T12:46:46.092Z,28.77
2022-08-07T12:47:44.489Z,28.86
2022-08-07T12:48:52.469Z,28.87
2022-08-07T12:49:51.240Z,28.81
2022-08-07T12:50:49.485Z,28.86
2022-08-07T12:51:51.552Z,28.72
2022-08-07T12:52:46.428Z,28.47
2022-08-07T12:54:03.103Z,28.15
2022-08-07T12:54:54.680Z,27.91
2022-08-07T12:56:03.052Z,27.69
2022-08-07T12:56:51.379Z,27.47